Time;durP1;ratioP1;P1;durP2;ratioP2;P2;SDS_P1;SDS_P2;PMS_P1;PMS_P2;Temp;Humidity;BMP_temperature;BMP_pressure;BME280_temperature;BME280_humidity;BME280_pressure;Samples;Min_cycle;Max_cycle;Signal;HPM_P1;HPM_P2
2021/07/08 00:01:22;;;;;;;12.18;10.98;;;;;;;18.77;70.04;96496.22;3568055;40;20148;-63
2021/07/08 00:03:50;;;;;;;13.43;12.20;;;;;;;18.77;69.74;96498.88;3586739;39;20051;-62
2021/07/08 00:06:17;;;;;;;13.27;10.95;;;;;;;18.74;70.47;96497.56;3573644;40;20049;-62
2021/07/08 00:08:45;;;;;;;12.75;11.43;;;;;;;18.67;70.59;96499.84;3572171;40;20067;-62
2021/07/08 00:11:13;;;;;;;16.63;11.63;;;;;;;18.52;70.42;96500.91;3582025;39;20065;-62
2021/07/08 00:13:41;;;;;;;13.63;12.18;;;;;;;18.44;70.79;96505.81;3569672;40;20329;-61
2021/07/08 00:16:09;;;;;;;13.75;10.77;;;;;;;18.41;71.43;96502.94;3571277;40;20047;-64
2021/07/08 00:18:36;;;;;;;13.85;11.10;;;;;;;18.37;72.04;96504.59;3568681;40;20059;-62
2021/07/08 00:21:04;;;;;;;11.77;10.68;;;;;;;18.37;71.44;96509.94;3576811;40;21154;-62
2021/07/08 00:23:32;;;;;;;12.40;11.20;;;;;;;18.41;71.48;96517.06;3572637;40;20048;-62
2021/07/08 00:26:00;;;;;;;11.85;10.48;;;;;;;18.43;71.64;96509.56;3573990;40;20070;-62
2021/07/08 00:28:27;;;;;;;11.63;10.63;;;;;;;18.42;71.83;96512.53;3581641;39;20147;-62
2021/07/08 00:30:55;;;;;;;12.48;11.23;;;;;;;18.41;71.84;96511.72;3575925;40;20044;-63
2021/07/08 00:33:23;;;;;;;11.48;10.52;;;;;;;18.41;71.21;96503.72;3581516;40;20477;-62
2021/07/08 00:35:51;;;;;;;13.98;11.30;;;;;;;18.39;71.84;96507.75;3581215;40;20066;-63
2021/07/08 00:38:18;;;;;;;12.02;10.82;;;;;;;18.33;71.34;96501.72;3583232;40;20052;-62
2021/07/08 00:40:46;;;;;;;12.20;10.95;;;;;;;18.32;71.59;96504.69;3574582;40;20260;-63
2021/07/08 00:43:15;;;;;;;12.73;11.52;;;;;;;18.32;71.29;96505.47;3582146;40;20913;-63
2021/07/08 00:45:43;;;;;;;12.65;11.45;;;;;;;18.30;71.18;96515.63;3574104;40;20048;-62
2021/07/08 00:48:12;;;;;;;15.30;11.48;;;;;;;18.26;71.77;96512.75;3581027;39;20062;-62
2021/07/08 00:50:42;;;;;;;13.90;12.45;;;;;;;18.23;72.45;96512.56;3580772;40;20130;-62
2021/07/08 00:53:11;;;;;;;13.57;12.23;;;;;;;18.18;71.68;96508.09;3581939;40;20062;-62
2021/07/08 00:55:42;;;;;;;12.82;11.50;;;;;;;18.13;73.12;96513.50;3583640;39;20062;-62
2021/07/08 00:58:10;;;;;;;14.13;11.88;;;;;;;18.07;72.32;96510.09;3571795;40;20052;-62
2021/07/08 01:00:38;;;;;;;15.50;13.02;;;;;;;18.05;73.17;96506.94;3571570;40;20769;-62
2021/07/08 01:03:09;;;;;;;11.82;10.73;;;;;;;18.00;72.88;96515.03;3583613;40;20064;-62
2021/07/08 01:05:48;;;;;;;14.38;11.60;;;;;;;18.02;73.08;96518.22;3572657;40;20286;-62
2021/07/08 01:08:17;;;;;;;15.73;12.95;;;;;;;18.02;72.90;96512.06;3578205;40;20037;-62
2021/07/08 01:10:48;;;;;;;12.95;11.63;;;;;;;18.01;73.03;96505.94;3566140;40;20059;-62
2021/07/08 01:13:18;;;;;;;13.52;12.07;;;;;;;18.01;73.73;96502.47;3577682;39;20055;-62
2021/07/08 01:15:46;;;;;;;12.60;11.40;;;;;;;18.00;73.67;96504.34;3564626;40;20118;-62
2021/07/08 01:18:15;;;;;;;19.17;12.60;;;;;;;17.98;73.28;96507.28;3575283;40;20052;-62
2021/07/08 01:20:44;;;;;;;18.90;12.73;;;;;;;18.00;72.95;96524.91;3577851;40;20096;-62
2021/07/08 01:23:13;;;;;;;13.52;12.02;;;;;;;17.99;73.47;96518.78;3579773;39;20260;-62
2021/07/08 01:25:42;;;;;;;15.52;11.20;;;;;;;17.96;72.99;96511.31;3580919;39;20052;-63
2021/07/08 01:28:11;;;;;;;11.60;10.60;;;;;;;17.99;72.59;96513.44;3558713;40;20337;-62
2021/07/08 01:30:39;;;;;;;12.50;11.27;;;;;;;17.97;72.73;96511.03;3579639;40;20060;-62
2021/07/08 01:33:07;;;;;;;12.27;11.23;;;;;;;17.92;72.45;96512.94;3581568;40;20670;-62
2021/07/08 01:35:35;;;;;;;14.20;12.43;;;;;;;17.86;73.27;96516.78;3583887;40;20058;-62
2021/07/08 01:38:04;;;;;;;13.30;11.95;;;;;;;17.79;73.74;96517.91;3565447;40;20313;-62
2021/07/08 01:40:31;;;;;;;13.70;12.38;;;;;;;17.80;72.99;96516.84;3582130;40;20368;-62
2021/07/08 01:42:59;;;;;;;11.93;10.65;;;;;;;17.77;74.15;96522.78;3581032;40;20048;-63
2021/07/08 01:45:27;;;;;;;12.55;10.95;;;;;;;17.76;73.29;96531.84;3582012;39;20052;-63
2021/07/08 01:47:55;;;;;;;16.30;11.23;;;;;;;17.73;73.38;96528.94;3580918;40;20477;-63
2021/07/08 01:50:23;;;;;;;12.73;11.55;;;;;;;17.68;73.97;96522.63;3582483;40;21881;-62
2021/07/08 01:52:51;;;;;;;13.10;11.70;;;;;;;17.63;73.71;96524.56;3566765;40;20047;-63
2021/07/08 01:55:19;;;;;;;14.05;12.55;;;;;;;17.56;74.08;96526.75;3582035;39;20056;-64
2021/07/08 01:57:52;;;;;;;13.45;12.13;;;;;;;17.49;75.26;96527.09;3582199;40;20056;-62
2021/07/08 02:00:22;;;;;;;13.70;12.30;;;;;;;17.41;75.12;96519.75;3581782;39;20339;-62
2021/07/08 02:02:54;;;;;;;15.27;12.68;;;;;;;17.34;75.73;96523.56;3582666;40;20062;-63
2021/07/08 02:05:23;;;;;;;14.23;12.73;;;;;;;17.27;75.83;96524.97;3583034;40;20329;-62
2021/07/08 02:07:51;;;;;;;16.90;12.90;;;;;;;17.25;76.14;96524.47;3589724;39;20577;-63
2021/07/08 02:10:19;;;;;;;15.27;13.68;;;;;;;17.28;75.55;96534.56;3571559;40;20306;-63
2021/07/08 02:12:47;;;;;;;13.02;11.68;;;;;;;17.27;75.82;96535.63;3572515;40;20036;-62
2021/07/08 02:15:15;;;;;;;17.98;13.95;;;;;;;17.21;75.54;96541.00;3573316;40;20335;-62
2021/07/08 02:17:43;;;;;;;17.48;12.55;;;;;;;17.16;76.50;96541.09;3577793;40;20055;-62
2021/07/08 02:20:13;;;;;;;17.33;13.70;;;;;;;17.10;76.89;96539.53;3585314;40;20497;-62
2021/07/08 02:22:42;;;;;;;20.17;12.98;;;;;;;17.06;76.53;96535.84;3570006;40;20064;-62
2021/07/08 02:25:13;;;;;;;17.33;14.07;;;;;;;17.03;76.41;96536.41;3581136;40;20050;-62
2021/07/08 02:27:41;;;;;;;15.40;12.77;;;;;;;17.01;76.50;96528.69;3581734;40;20064;-62
2021/07/08 02:30:11;;;;;;;16.40;13.70;;;;;;;17.01;76.92;96538.56;3579905;39;20052;-62
2021/07/08 02:32:40;;;;;;;16.20;13.35;;;;;;;17.00;76.93;96528.97;3581007;40;20058;-62
2021/07/08 02:35:10;;;;;;;17.02;13.50;;;;;;;17.01;76.93;96530.56;3580603;40;20047;-62
2021/07/08 02:37:39;;;;;;;14.43;12.52;;;;;;;17.02;77.05;96527.63;3572128;40;20048;-62
2021/07/08 02:40:12;;;;;;;13.43;12.18;;;;;;;17.06;76.57;96530.50;3573510;40;20108;-62
2021/07/08 02:42:41;;;;;;;22.38;14.82;;;;;;;17.06;76.68;96530.50;3576069;39;20083;-62
2021/07/08 02:45:09;;;;;;;14.88;12.98;;;;;;;17.04;77.41;96533.47;3581411;40;20050;-63
2021/07/08 02:47:37;;;;;;;14.95;12.52;;;;;;;17.06;76.47;96535.84;3570908;40;20084;-63
2021/07/08 02:50:06;;;;;;;15.65;12.95;;;;;;;17.07;76.47;96532.09;3579674;40;20056;-62
2021/07/08 02:52:34;;;;;;;14.27;12.60;;;;;;;17.07;76.78;96532.09;3568440;40;20321;-63
2021/07/08 02:55:02;;;;;;;13.93;12.52;;;;;;;17.11;76.66;96538.47;3566366;40;20048;-62
2021/07/08 02:57:30;;;;;;;15.80;12.63;;;;;;;17.12;76.90;96540.06;3572330;40;20313;-62
2021/07/08 02:59:57;;;;;;;18.60;12.82;;;;;;;17.16;76.53;96541.09;3581361;40;20056;-62
2021/07/08 03:02:25;;;;;;;15.32;13.65;;;;;;;17.20;76.74;96536.75;3574635;40;20051;-63
2021/07/08 03:04:53;;;;;;;13.35;12.15;;;;;;;17.24;76.03;96536.19;3581419;40;20317;-63
2021/07/08 03:07:20;;;;;;;14.32;12.85;;;;;;;17.27;75.85;96538.31;3572007;40;20086;-63
2021/07/08 03:09:48;;;;;;;16.38;13.57;;;;;;;17.33;76.23;96545.97;3563736;40;20041;-63
2021/07/08 03:12:16;;;;;;;14.68;13.32;;;;;;;17.35;75.99;96548.34;3581474;40;20036;-63
2021/07/08 03:14:43;;;;;;;14.35;12.85;;;;;;;17.38;75.64;96542.44;3590781;39;20321;-64
2021/07/08 03:17:11;;;;;;;14.30;12.75;;;;;;;17.39;75.80;96546.72;3563296;40;20070;-63
2021/07/08 03:19:39;;;;;;;19.77;12.20;;;;;;;17.42;76.03;96540.78;3580662;40;20051;-64
2021/07/08 03:22:07;;;;;;;14.18;12.68;;;;;;;17.49;75.21;96546.59;3580267;40;20577;-64
2021/07/08 03:24:35;;;;;;;13.45;12.25;;;;;;;17.53;75.03;96549.47;3575177;40;20033;-64
2021/07/08 03:27:05;;;;;;;13.93;12.50;;;;;;;17.55;75.54;96543.84;3586717;40;20060;-63
2021/07/08 03:29:33;;;;;;;12.68;11.57;;;;;;;17.58;75.06;96541.41;3572888;40;20041;-63
2021/07/08 03:32:00;;;;;;;11.82;10.82;;;;;;;17.65;74.53;96552.53;3574342;40;20317;-64
2021/07/08 03:34:28;;;;;;;14.02;12.57;;;;;;;17.67;74.33;96553.03;3570097;40;20053;-62
2021/07/08 03:36:56;;;;;;;14.77;11.85;;;;;;;17.70;74.17;96558.88;3586176;39;20055;-63
2021/07/08 03:39:24;;;;;;;13.60;12.27;;;;;;;17.79;74.15;96557.16;3571933;40;20033;-63
2021/07/08 03:41:51;;;;;;;13.38;11.90;;;;;;;18.18;73.17;96560.69;3571552;40;20056;-63
2021/07/08 03:44:20;;;;;;;17.45;12.48;;;;;;;18.68;71.31;96568.25;3568235;40;20296;-63
2021/07/08 03:46:47;;;;;;;13.02;11.82;;;;;;;19.18;70.57;96562.34;3568427;40;20046;-63
2021/07/08 03:49:15;;;;;;;13.50;12.20;;;;;;;19.64;68.34;96553.41;3570574;40;20048;-63
2021/07/08 03:51:43;;;;;;;14.10;12.70;;;;;;;19.96;67.09;96551.75;3570755;40;20059;-64
2021/07/08 03:54:10;;;;;;;14.77;12.95;;;;;;;20.35;66.21;96564.84;3568288;40;20066;-63
2021/07/08 03:56:38;;;;;;;14.98;12.38;;;;;;;20.68;64.97;96562.69;3573674;40;20055;-64
2021/07/08 03:59:06;;;;;;;19.55;13.93;;;;;;;20.97;64.35;96552.66;3572659;40;20060;-64
2021/07/08 04:01:34;;;;;;;18.52;13.32;;;;;;;21.34;63.06;96569.41;3569685;40;20049;-63
2021/07/08 04:04:02;;;;;;;13.15;11.80;;;;;;;21.59;62.02;96567.16;3569373;40;20361;-63
2021/07/08 04:06:29;;;;;;;13.50;11.48;;;;;;;21.81;61.22;96558.22;3569518;40;20495;-64
2021/07/08 04:08:57;;;;;;;15.40;12.35;;;;;;;22.09;60.33;96569.47;3572053;40;20056;-64
2021/07/08 04:11:25;;;;;;;15.15;11.57;;;;;;;22.36;58.65;96566.81;3573294;40;20053;-64
2021/07/08 04:13:52;;;;;;;13.30;12.00;;;;;;;22.46;58.35;96565.75;3573321;40;20060;-64
2021/07/08 04:16:20;;;;;;;13.55;11.82;;;;;;;22.57;58.38;96569.69;3571179;40;20060;-64
2021/07/08 04:18:48;;;;;;;15.32;11.05;;;;;;;22.91;57.59;96568.06;3569996;40;20045;-64
2021/07/08 04:21:16;;;;;;;13.30;12.05;;;;;;;23.22;56.75;96569.72;3554868;40;20058;-64
2021/07/08 04:23:44;;;;;;;17.63;13.48;;;;;;;23.43;56.22;96564.44;3572746;40;20049;-65
2021/07/08 04:26:12;;;;;;;14.15;11.40;;;;;;;23.72;55.74;96567.47;3565276;40;20052;-64
2021/07/08 04:28:40;;;;;;;21.13;13.10;;;;;;;24.09;54.42;96560.47;3571349;40;20055;-65
2021/07/08 04:31:09;;;;;;;12.43;11.20;;;;;;;24.24;53.01;96564.47;3572029;40;20039;-65
2021/07/08 04:33:39;;;;;;;12.13;11.02;;;;;;;24.50;53.20;96559.97;3578765;40;20049;-65
2021/07/08 04:36:07;;;;;;;14.82;13.30;;;;;;;24.71;51.74;96565.38;3582550;40;20048;-65
2021/07/08 04:38:35;;;;;;;14.35;11.55;;;;;;;24.91;51.82;96565.69;3566090;40;20044;-65
2021/07/08 04:41:03;;;;;;;12.77;10.55;;;;;;;24.94;51.91;96565.78;3581185;40;20050;-65
2021/07/08 04:43:31;;;;;;;12.82;11.48;;;;;;;25.09;51.66;96564.34;3580857;40;20040;-65
2021/07/08 04:45:59;;;;;;;14.25;12.85;;;;;;;25.21;51.07;96558.22;3581057;40;20048;-65
2021/07/08 04:48:26;;;;;;;15.02;12.20;;;;;;;25.24;51.00;96554.03;3571637;40;20385;-65
2021/07/08 04:50:54;;;;;;;17.33;13.40;;;;;;;25.28;50.82;96563.06;3571135;40;20051;-64
2021/07/08 04:53:22;;;;;;;13.20;11.20;;;;;;;25.17;51.53;96562.69;3583400;40;20402;-65
2021/07/08 04:55:49;;;;;;;19.08;12.95;;;;;;;25.26;51.35;96551.78;3574063;40;20089;-65
2021/07/08 04:58:17;;;;;;;18.52;12.93;;;;;;;25.54;50.66;96561.97;3573360;40;20049;-65
2021/07/08 05:00:45;;;;;;;17.52;13.93;;;;;;;25.81;50.44;96559.69;3575676;40;20048;-65
2021/07/08 05:03:13;;;;;;;15.88;13.52;;;;;;;25.74;50.26;96552.16;3575322;40;20058;-65
2021/07/08 05:05:40;;;;;;;11.13;10.10;;;;;;;25.74;49.34;96552.97;3563910;40;20063;-65
2021/07/08 05:08:08;;;;;;;10.60;9.65;;;;;;;25.94;48.02;96553.16;3579223;40;20049;-65
2021/07/08 05:10:36;;;;;;;13.10;11.43;;;;;;;26.15;48.55;96555.72;3586007;40;20336;-65
2021/07/08 05:13:04;;;;;;;14.98;12.95;;;;;;;26.19;48.78;96558.53;3583653;39;20336;-65
2021/07/08 05:15:35;;;;;;;15.40;13.90;;;;;;;26.49;48.82;96566.34;3559410;39;20040;-64
2021/07/08 05:18:04;;;;;;;14.13;12.48;;;;;;;26.51;48.87;96559.44;3581748;39;20290;-64
2021/07/08 05:20:32;;;;;;;14.73;13.30;;;;;;;26.16;49.19;96560.00;3576593;40;20052;-64
2021/07/08 05:23:02;;;;;;;17.00;14.05;;;;;;;25.78;50.22;96553.88;3576052;39;20316;-63
2021/07/08 05:25:30;;;;;;;16.85;13.23;;;;;;;25.23;51.90;96563.25;3573956;40;20041;-64
2021/07/08 05:27:58;;;;;;;14.93;13.55;;;;;;;24.93;53.29;96571.50;3574291;40;20047;-64
2021/07/08 05:30:25;;;;;;;14.90;13.50;;;;;;;24.74;53.88;96569.34;3580944;40;20075;-64
2021/07/08 05:32:54;;;;;;;16.35;14.90;;;;;;;24.52;54.53;96563.94;3582091;39;20052;-66
2021/07/08 05:35:21;;;;;;;20.23;15.50;;;;;;;24.36;55.13;96562.94;3566809;40;20082;-66
2021/07/08 05:37:49;;;;;;;16.15;14.52;;;;;;;24.26;55.63;96564.94;3583335;40;20032;-65
2021/07/08 05:40:17;;;;;;;18.70;15.13;;;;;;;24.11;55.65;96560.13;3564425;40;20380;-64
2021/07/08 05:42:45;;;;;;;16.23;14.10;;;;;;;24.00;56.06;96558.94;3585088;40;20060;-64
2021/07/08 05:45:13;;;;;;;15.88;13.50;;;;;;;24.00;56.05;96562.41;3565239;40;20054;-64
2021/07/08 05:47:41;;;;;;;14.43;13.07;;;;;;;24.07;55.89;96569.97;3582527;40;20238;-64
2021/07/08 05:50:09;;;;;;;14.60;13.40;;;;;;;24.12;55.42;96572.50;3584359;39;20048;-65
2021/07/08 05:52:37;;;;;;;16.67;15.13;;;;;;;24.02;55.38;96564.78;3588917;39;20040;-64
2021/07/08 05:55:08;;;;;;;14.85;13.27;;;;;;;23.97;55.72;96559.59;3578556;40;20062;-64
2021/07/08 05:57:36;;;;;;;16.13;14.50;;;;;;;23.84;55.76;96554.09;3581141;40;20648;-64
2021/07/08 06:00:05;;;;;;;13.85;12.48;;;;;;;23.76;56.37;96565.72;3570492;40;20071;-64
2021/07/08 06:02:33;;;;;;;15.20;13.85;;;;;;;23.81;56.02;96549.38;3590208;39;20090;-64
2021/07/08 06:05:01;;;;;;;14.35;13.07;;;;;;;23.87;56.72;96560.75;3565146;40;20045;-64
2021/07/08 06:07:29;;;;;;;14.50;13.20;;;;;;;24.05;56.76;96561.44;3584126;39;20679;-64
2021/07/08 06:09:57;;;;;;;15.55;14.02;;;;;;;24.06;55.63;96553.03;3584921;39;20045;-64
2021/07/08 06:12:25;;;;;;;16.00;13.07;;;;;;;24.11;55.77;96560.13;3581725;40;20044;-64
2021/07/08 06:14:52;;;;;;;13.60;12.30;;;;;;;24.26;55.93;96556.84;3584777;40;20051;-66
2021/07/08 06:17:20;;;;;;;14.82;13.32;;;;;;;24.31;55.91;96561.25;3576782;40;20045;-64
2021/07/08 06:19:47;;;;;;;14.90;13.60;;;;;;;24.34;55.06;96549.81;3561524;40;20044;-64
2021/07/08 06:22:15;;;;;;;17.27;15.45;;;;;;;24.36;55.21;96546.78;3576432;40;20360;-64
2021/07/08 06:24:43;;;;;;;15.05;13.45;;;;;;;24.36;54.91;96549.47;3585079;39;20304;-64
2021/07/08 06:27:11;;;;;;;14.45;13.05;;;;;;;24.43;55.34;96544.34;3591706;39;20313;-64
2021/07/08 06:29:39;;;;;;;15.27;13.65;;;;;;;24.61;55.57;96545.00;3593119;39;20052;-64
2021/07/08 06:32:07;;;;;;;14.77;12.90;;;;;;;24.71;54.83;96550.00;3585856;40;20091;-64
2021/07/08 06:34:35;;;;;;;15.48;12.80;;;;;;;24.83;54.65;96546.53;3585776;40;20052;-64
2021/07/08 06:37:02;;;;;;;13.27;11.95;;;;;;;24.91;54.32;96547.56;3583259;40;20043;-64
2021/07/08 06:39:30;;;;;;;13.90;12.55;;;;;;;24.98;53.80;96547.03;3583726;40;20054;-64
2021/07/08 06:41:58;;;;;;;13.85;12.43;;;;;;;24.95;53.46;96534.19;3578905;39;20632;-66
2021/07/08 06:44:25;;;;;;;15.57;13.00;;;;;;;25.10;53.90;96543.56;3568260;40;20056;-64
2021/07/08 06:46:54;;;;;;;17.88;11.95;;;;;;;25.22;53.59;96534.69;3573953;40;20051;-64
2021/07/08 06:49:22;;;;;;;15.18;12.27;;;;;;;25.36;53.22;96529.75;3580624;40;20054;-64
2021/07/08 06:51:49;;;;;;;14.52;13.30;;;;;;;25.42;52.49;96533.81;3576009;40;20058;-64
2021/07/08 06:54:17;;;;;;;13.52;12.23;;;;;;;25.45;52.73;96527.75;3574716;40;20059;-64
2021/07/08 06:56:45;;;;;;;19.90;13.38;;;;;;;25.55;52.13;96521.13;3572154;40;20056;-65
2021/07/08 06:59:13;;;;;;;14.77;11.90;;;;;;;25.70;52.33;96522.31;3569027;40;20415;-65
2021/07/08 07:01:40;;;;;;;13.65;12.23;;;;;;;25.77;52.18;96522.56;3578069;40;20052;-64
2021/07/08 07:04:08;;;;;;;12.65;11.23;;;;;;;25.78;51.83;96523.34;3561926;40;20052;-65
2021/07/08 07:06:36;;;;;;;13.18;12.07;;;;;;;25.84;51.71;96518.47;3579393;40;20065;-65
2021/07/08 07:09:03;;;;;;;14.35;12.95;;;;;;;25.74;51.73;96523.22;3566608;40;20047;-64
2021/07/08 07:11:32;;;;;;;16.10;12.02;;;;;;;25.78;51.98;96521.44;3580353;39;20058;-65
2021/07/08 07:14:00;;;;;;;13.05;11.75;;;;;;;25.92;51.58;96517.56;3578649;40;20423;-65
2021/07/08 07:16:28;;;;;;;12.98;11.73;;;;;;;25.94;51.06;96508.00;3567022;40;20580;-64
2021/07/08 07:18:55;;;;;;;15.50;12.50;;;;;;;26.07;51.47;96519.56;3571875;39;20432;-64
2021/07/08 07:21:23;;;;;;;13.85;12.43;;;;;;;26.17;51.06;96512.13;3571398;40;20044;-65
2021/07/08 07:23:51;;;;;;;13.38;11.90;;;;;;;26.33;51.13;96504.84;3579653;40;20188;-64
2021/07/08 07:26:22;;;;;;;11.70;10.60;;;;;;;26.44;50.38;96501.66;3582368;40;20056;-65
2021/07/08 07:28:50;;;;;;;11.93;10.73;;;;;;;26.57;50.13;96507.81;3571438;40;20144;-65
2021/07/08 07:31:17;;;;;;;13.77;12.57;;;;;;;26.60;50.10;96505.19;3570068;40;20383;-65
2021/07/08 07:33:46;;;;;;;12.23;11.23;;;;;;;26.80;50.04;96510.75;3573401;40;20067;-65
2021/07/08 07:36:14;;;;;;;12.15;11.05;;;;;;;26.98;49.20;96511.19;3576625;40;20433;-66
2021/07/08 07:38:42;;;;;;;11.40;10.50;;;;;;;27.00;48.98;96508.94;3575033;40;20043;-65
2021/07/08 07:41:10;;;;;;;15.50;13.80;;;;;;;27.10;48.03;96508.41;3574063;40;20059;-66
2021/07/08 07:43:37;;;;;;;12.65;10.70;;;;;;;27.27;47.74;96509.97;3585374;40;20131;-65
2021/07/08 07:46:05;;;;;;;11.48;10.32;;;;;;;27.35;47.41;96508.22;3580963;40;20330;-65
2021/07/08 07:48:34;;;;;;;10.95;9.85;;;;;;;27.36;46.83;96514.44;3589628;39;20051;-65
2021/07/08 07:51:02;;;;;;;10.38;9.40;;;;;;;27.50;46.28;96506.69;3574149;40;20420;-65
2021/07/08 07:53:30;;;;;;;11.98;9.07;;;;;;;27.66;46.26;96505.84;3575887;40;20049;-65
2021/07/08 07:55:58;;;;;;;9.93;9.07;;;;;;;27.73;46.33;96500.59;3570458;40;20045;-65
2021/07/08 07:58:27;;;;;;;13.77;9.90;;;;;;;27.86;46.27;96493.13;3572430;40;20057;-65
2021/07/08 08:00:56;;;;;;;10.35;9.38;;;;;;;27.99;46.36;96496.50;3572381;40;20049;-65
2021/07/08 08:03:24;;;;;;;9.65;8.70;;;;;;;28.20;46.15;96493.44;3575942;40;20055;-65
2021/07/08 08:08:43;;;;;;;10.45;8.85;;;;;;;28.35;45.33;96491.81;3575294;40;20414;-65
2021/07/08 08:11:11;;;;;;;10.65;8.52;;;;;;;28.39;45.02;96492.66;3571417;40;20063;-66
2021/07/08 08:13:39;;;;;;;10.60;8.85;;;;;;;28.55;45.51;96481.72;3569200;40;20053;-65
2021/07/08 08:16:08;;;;;;;9.93;9.02;;;;;;;28.61;45.03;96477.56;3573592;40;20314;-68
2021/07/08 08:18:36;;;;;;;9.98;8.95;;;;;;;28.73;44.72;96473.94;3571326;40;20394;-66
2021/07/08 08:21:09;;;;;;;9.43;8.57;;;;;;;28.93;44.33;96482.03;3573708;40;20080;-65
2021/07/08 08:23:39;;;;;;;11.05;8.52;;;;;;;29.13;43.02;96485.47;3572818;40;20059;-66
2021/07/08 08:26:07;;;;;;;10.07;9.05;;;;;;;29.28;42.44;96470.94;3579840;39;20045;-66
2021/07/08 08:28:35;;;;;;;11.13;8.77;;;;;;;29.36;41.87;96469.13;3580327;39;20046;-66
2021/07/08 08:31:03;;;;;;;11.45;8.00;;;;;;;29.54;40.36;96457.75;3589631;39;20320;-66
2021/07/08 08:33:35;;;;;;;7.93;7.22;;;;;;;29.75;40.13;96463.47;3590678;39;20109;-65
2021/07/08 08:36:03;;;;;;;9.20;8.38;;;;;;;29.86;39.21;96465.53;3572958;39;20056;-66
2021/07/08 08:38:31;;;;;;;14.38;8.45;;;;;;;30.01;40.30;96472.75;3575133;39;20575;-66
2021/07/08 08:40:59;;;;;;;10.00;7.05;;;;;;;30.17;39.65;96458.94;3584126;39;20045;-64
2021/07/08 08:43:27;;;;;;;8.32;7.53;;;;;;;30.43;39.33;96470.13;3590991;39;20058;-64
2021/07/08 08:45:55;;;;;;;8.65;7.85;;;;;;;30.70;37.17;96468.09;3565506;40;20329;-66
2021/07/08 08:48:22;;;;;;;8.30;6.85;;;;;;;30.83;35.32;96463.16;3590585;39;20055;-65
2021/07/08 08:50:50;;;;;;;8.13;6.95;;;;;;;30.99;35.26;96469.13;3589400;39;20318;-65
2021/07/08 08:53:19;;;;;;;8.43;7.63;;;;;;;31.18;35.45;96470.09;3582540;39;20402;-66
2021/07/08 08:55:48;;;;;;;7.93;6.90;;;;;;;31.34;34.24;96471.72;3584659;39;20395;-65
2021/07/08 08:58:20;;;;;;;8.93;6.93;;;;;;;31.42;34.44;96465.97;3587031;39;20325;-65
2021/07/08 09:00:51;;;;;;;7.95;7.15;;;;;;;31.59;33.86;96464.50;3575418;40;20060;-64
2021/07/08 09:03:25;;;;;;;8.80;7.22;;;;;;;31.72;33.73;96461.47;3575899;40;20052;-64
2021/07/08 09:06:06;;;;;;;8.90;7.88;;;;;;;31.76;33.78;96467.75;3586059;40;20048;-64
2021/07/08 09:08:37;;;;;;;7.57;6.97;;;;;;;31.85;33.64;96468.16;3583837;40;20062;-64
2021/07/08 09:11:07;;;;;;;8.65;7.00;;;;;;;31.96;33.62;96470.16;3591155;40;20444;-64
2021/07/08 09:13:50;;;;;;;7.68;6.80;;;;;;;32.07;32.92;96462.03;3586316;40;20051;-65
2021/07/08 09:16:41;;;;;;;8.57;7.38;;;;;;;32.19;33.03;96470.63;3583338;40;20432;-64
2021/07/08 09:19:12;;;;;;;8.18;7.43;;;;;;;32.27;33.16;96466.03;3583355;40;20040;-64
2021/07/08 09:21:52;;;;;;;10.73;8.05;;;;;;;32.33;33.10;96471.88;3582969;40;20040;-64
2021/07/08 09:24:29;;;;;;;7.28;6.47;;;;;;;32.41;32.61;96454.38;3589807;40;20408;-66
2021/07/08 09:27:03;;;;;;;9.63;7.63;;;;;;;32.47;32.39;96455.53;3581702;40;20078;-64
2021/07/08 09:29:34;;;;;;;12.38;7.13;;;;;;;32.59;32.16;96445.41;3582863;40;20052;-65
2021/07/08 09:32:14;;;;;;;9.90;8.00;;;;;;;32.64;32.42;96451.28;3585802;40;20053;-64
2021/07/08 09:34:46;;;;;;;8.65;7.75;;;;;;;32.70;32.26;96448.94;3575178;40;20056;-64
2021/07/08 09:37:14;;;;;;;10.80;8.07;;;;;;;32.76;31.93;96452.88;3582960;40;20448;-64
2021/07/08 09:39:43;;;;;;;8.25;7.13;;;;;;;32.85;32.50;96451.72;3592543;39;20264;-64
2021/07/08 09:42:13;;;;;;;12.57;8.77;;;;;;;32.90;31.75;96452.09;3580280;40;20053;-65
2021/07/08 09:44:41;;;;;;;8.05;7.35;;;;;;;32.96;31.56;96461.50;3583328;40;20532;-66
2021/07/08 09:47:20;;;;;;;9.02;7.70;;;;;;;33.01;31.84;96446.66;3574566;39;20337;-66
2021/07/08 09:49:48;;;;;;;7.57;6.90;;;;;;;33.11;31.39;96443.13;3585199;39;20056;-66
2021/07/08 09:52:17;;;;;;;8.93;8.00;;;;;;;33.16;31.43;96438.44;3573205;39;20045;-64
2021/07/08 09:57:31;;;;;;;9.10;8.15;;;;;;;33.36;31.14;96444.28;3584750;39;20368;-66
2021/07/08 09:59:59;;;;;;;9.18;8.52;;;;;;;33.38;31.16;96448.22;3583370;39;20051;-66
2021/07/08 10:02:35;;;;;;;9.10;8.23;;;;;;;33.36;31.46;96450.56;3584718;40;20045;-66
2021/07/08 10:05:03;;;;;;;8.27;7.60;;;;;;;33.48;31.47;96445.84;3591017;39;20050;-65
2021/07/08 10:07:32;;;;;;;8.52;7.82;;;;;;;33.60;31.49;96441.91;3568129;40;20044;-66
2021/07/08 10:10:00;;;;;;;9.05;8.25;;;;;;;33.68;31.33;96451.66;3585221;40;20053;-66
2021/07/08 10:12:28;;;;;;;8.27;7.55;;;;;;;33.73;30.80;96456.69;3583787;40;20059;-66
2021/07/08 10:15:00;;;;;;;10.25;8.02;;;;;;;33.80;30.88;96444.94;3590992;39;20052;-66
2021/07/08 10:17:32;;;;;;;9.48;8.45;;;;;;;33.86;30.67;96449.63;3585898;40;20058;-66
2021/07/08 10:20:01;;;;;;;9.45;8.57;;;;;;;33.82;30.68;96450.81;3581762;40;20048;-66
2021/07/08 10:22:30;;;;;;;11.10;8.65;;;;;;;33.72;30.64;96450.47;3582561;40;20040;-66
2021/07/08 10:24:57;;;;;;;8.82;8.20;;;;;;;33.72;31.28;96455.94;3568216;40;20037;-66
2021/07/08 10:27:26;;;;;;;10.45;8.27;;;;;;;33.78;30.68;96452.81;3573565;40;20051;-66
2021/07/08 10:29:54;;;;;;;9.15;8.25;;;;;;;33.75;30.94;96442.63;3591074;39;20045;-66
2021/07/08 10:32:23;;;;;;;9.20;7.82;;;;;;;33.69;30.99;96442.28;3575212;40;20329;-65
2021/07/08 10:34:51;;;;;;;9.18;8.40;;;;;;;33.69;31.04;96451.25;3572685;40;20055;-66
2021/07/08 10:37:28;;;;;;;7.88;7.35;;;;;;;33.67;30.94;96441.88;3574328;40;20049;-64
2021/07/08 10:40:29;;;;;;;8.82;7.65;;;;;;;33.66;30.74;96430.19;3575050;40;20052;-64
2021/07/08 10:43:12;;;;;;;8.70;7.68;;;;;;;33.68;30.78;96435.25;3589604;39;20323;-64
2021/07/08 10:45:42;;;;;;;9.38;7.65;;;;;;;33.71;31.28;96432.47;3580604;40;20404;-64
2021/07/08 10:48:24;;;;;;;9.00;8.07;;;;;;;33.69;30.88;96434.84;3571639;40;20056;-65
2021/07/08 10:50:54;;;;;;;8.57;7.72;;;;;;;33.76;31.22;96430.53;3573648;40;20485;-64
2021/07/08 10:53:27;;;;;;;8.65;7.95;;;;;;;33.74;30.91;96422.69;3577027;40;20041;-65
2021/07/08 10:56:04;;;;;;;10.98;8.55;;;;;;;33.77;30.65;96424.66;3578127;40;20045;-66
2021/07/08 10:58:43;;;;;;;9.10;8.00;;;;;;;33.76;30.12;96436.00;3578425;40;20044;-66
2021/07/08 11:01:23;;;;;;;10.95;8.18;;;;;;;33.72;30.97;96428.56;3573523;40;20048;-66
2021/07/08 11:03:54;;;;;;;8.45;7.70;;;;;;;33.76;30.55;96427.78;3573872;40;20142;-65
2021/07/08 11:06:29;;;;;;;8.43;7.80;;;;;;;33.71;30.84;96427.00;3573234;40;20088;-66
2021/07/08 11:09:07;;;;;;;8.75;7.95;;;;;;;33.80;30.81;96440.28;3575078;40;20577;-65
2021/07/08 11:11:35;;;;;;;8.55;7.75;;;;;;;33.91;30.67;96432.03;3578906;40;20412;-65
2021/07/08 11:14:11;;;;;;;8.45;7.78;;;;;;;33.99;30.26;96427.31;3585036;39;20033;-65
2021/07/08 11:16:48;;;;;;;8.48;7.63;;;;;;;34.01;30.29;96427.69;3577655;40;20049;-66
2021/07/08 11:19:20;;;;;;;8.05;7.30;;;;;;;34.12;30.18;96428.44;3590463;39;20045;-65
2021/07/08 11:21:57;;;;;;;7.50;6.90;;;;;;;34.17;30.52;96413.53;3567893;40;20511;-65
2021/07/08 11:24:39;;;;;;;7.85;7.18;;;;;;;34.28;30.19;96418.97;3572936;40;20033;-65
2021/07/08 11:27:10;;;;;;;6.90;6.40;;;;;;;34.42;29.77;96415.38;3590233;39;20880;-65
2021/07/08 11:29:45;;;;;;;8.13;7.32;;;;;;;34.47;29.48;96414.97;3572897;40;20398;-65
2021/07/08 11:32:37;;;;;;;7.22;6.53;;;;;;;34.55;29.34;96415.69;3589294;39;20809;-65
2021/07/08 11:35:16;;;;;;;7.47;6.88;;;;;;;34.63;29.36;96420.72;3577111;40;20076;-65
2021/07/08 11:37:55;;;;;;;6.63;5.38;;;;;;;34.62;28.28;96404.66;3586583;40;20050;-64